sensor_id;sensor_type;location;lat;lon;timestamp;temperature;humidity
33741;DHT22;20065;48.380;10.892;2023-06-26T00:02:07;21.00;99.90
33741;DHT22;20065;48.380;10.892;2023-06-26T00:04:53;20.90;99.90
33741;DHT22;20065;48.380;10.892;2023-06-26T00:07:40;20.90;99.90
33741;DHT22;20065;48.380;10.892;2023-06-26T00:10:27;20.80;99.90
33741;DHT22;20065;48.380;10.892;2023-06-26T00:13:13;20.80;99.90
33741;DHT22;20065;48.380;10.892;2023-06-26T00:15:59;20.80;99.90
33741;DHT22;20065;48.380;10.892;2023-06-26T00:18:48;20.80;99.90
33741;DHT22;20065;48.380;10.892;2023-06-26T00:21:39;20.80;99.90
33741;DHT22;20065;48.380;10.892;2023-06-26T00:24:25;20.80;99.90
33741;DHT22;20065;48.380;10.892;2023-06-26T00:27:14;20.80;99.90
33741;DHT22;20065;48.380;10.892;2023-06-26T00:30:00;20.80;99.90
33741;DHT22;20065;48.380;10.892;2023-06-26T00:32:46;20.70;99.90
33741;DHT22;20065;48.380;10.892;2023-06-26T00:35:33;20.70;99.90
33741;DHT22;20065;48.380;10.892;2023-06-26T00:38:19;20.60;99.90
33741;DHT22;20065;48.380;10.892;2023-06-26T00:41:05;20.60;99.90
33741;DHT22;20065;48.380;10.892;2023-06-26T00:43:58;20.60;99.90
33741;DHT22;20065;48.380;10.892;2023-06-26T00:46:47;20.50;99.90
33741;DHT22;20065;48.380;10.892;2023-06-26T00:49:33;20.50;99.90
33741;DHT22;20065;48.380;10.892;2023-06-26T00:52:19;20.50;99.90
33741;DHT22;20065;48.380;10.892;2023-06-26T00:55:06;20.50;99.90
33741;DHT22;20065;48.380;10.892;2023-06-26T00:57:54;20.50;99.90
33741;DHT22;20065;48.380;10.892;2023-06-26T01:00:40;20.40;99.90
33741;DHT22;20065;48.380;10.892;2023-06-26T01:03:27;20.40;99.90
33741;DHT22;20065;48.380;10.892;2023-06-26T01:06:15;20.30;99.90
33741;DHT22;20065;48.380;10.892;2023-06-26T01:09:02;20.30;99.90
33741;DHT22;20065;48.380;10.892;2023-06-26T01:11:48;20.20;99.90
33741;DHT22;20065;48.380;10.892;2023-06-26T01:14:35;20.20;99.90
33741;DHT22;20065;48.380;10.892;2023-06-26T01:17:22;20.20;99.90
33741;DHT22;20065;48.380;10.892;2023-06-26T01:20:09;20.20;99.90
33741;DHT22;20065;48.380;10.892;2023-06-26T01:26:18;20.10;99.90
33741;DHT22;20065;48.380;10.892;2023-06-26T01:29:07;20.10;99.90
33741;DHT22;20065;48.380;10.892;2023-06-26T01:31:56;20.10;99.90
33741;DHT22;20065;48.380;10.892;2023-06-26T01:34:43;20.10;99.90
33741;DHT22;20065;48.380;10.892;2023-06-26T01:37:30;20.10;99.90
33741;DHT22;20065;48.380;10.892;2023-06-26T01:40:16;20.10;99.90
33741;DHT22;20065;48.380;10.892;2023-06-26T01:43:03;20.10;99.90
33741;DHT22;20065;48.380;10.892;2023-06-26T01:45:59;20.10;99.90
33741;DHT22;20065;48.380;10.892;2023-06-26T01:52:10;20.00;99.90
33741;DHT22;20065;48.380;10.892;2023-06-26T01:55:04;20.00;99.90
33741;DHT22;20065;48.380;10.892;2023-06-26T01:57:55;19.90;99.90
33741;DHT22;20065;48.380;10.892;2023-06-26T02:00:42;20.00;99.90
33741;DHT22;20065;48.380;10.892;2023-06-26T02:03:28;20.10;99.90
33741;DHT22;20065;48.380;10.892;2023-06-26T02:06:16;20.00;99.90
33741;DHT22;20065;48.380;10.892;2023-06-26T02:09:02;20.00;99.90
33741;DHT22;20065;48.380;10.892;2023-06-26T02:11:51;20.00;99.90
33741;DHT22;20065;48.380;10.892;2023-06-26T02:14:37;20.00;99.90
33741;DHT22;20065;48.380;10.892;2023-06-26T02:17:23;20.10;99.90
33741;DHT22;20065;48.380;10.892;2023-06-26T02:20:10;20.10;99.90
33741;DHT22;20065;48.380;10.892;2023-06-26T02:22:56;20.00;99.90
33741;DHT22;20065;48.380;10.892;2023-06-26T02:25:42;20.00;99.90
33741;DHT22;20065;48.380;10.892;2023-06-26T02:28:29;20.10;99.90
33741;DHT22;20065;48.380;10.892;2023-06-26T02:31:17;20.10;99.80
33741;DHT22;20065;48.380;10.892;2023-06-26T02:34:03;20.10;99.80
33741;DHT22;20065;48.380;10.892;2023-06-26T02:36:49;20.00;99.90
33741;DHT22;20065;48.380;10.892;2023-06-26T02:39:35;20.00;99.70
33741;DHT22;20065;48.380;10.892;2023-06-26T02:42:23;20.00;99.60
33741;DHT22;20065;48.380;10.892;2023-06-26T02:45:09;19.90;99.50
33741;DHT22;20065;48.380;10.892;2023-06-26T02:47:55;19.80;99.70
33741;DHT22;20065;48.380;10.892;2023-06-26T02:50:45;19.70;99.70
33741;DHT22;20065;48.380;10.892;2023-06-26T02:53:34;19.80;99.70
33741;DHT22;20065;48.380;10.892;2023-06-26T02:56:20;19.70;99.60
33741;DHT22;20065;48.380;10.892;2023-06-26T02:59:06;19.70;99.70
33741;DHT22;20065;48.380;10.892;2023-06-26T03:01:52;19.70;99.90
33741;DHT22;20065;48.380;10.892;2023-06-26T03:04:39;19.70;99.70
33741;DHT22;20065;48.380;10.892;2023-06-26T03:07:30;19.70;99.90
33741;DHT22;20065;48.380;10.892;2023-06-26T03:10:16;19.70;99.90
33741;DHT22;20065;48.380;10.892;2023-06-26T03:13:03;19.70;99.90
33741;DHT22;20065;48.380;10.892;2023-06-26T03:15:49;19.80;99.90
33741;DHT22;20065;48.380;10.892;2023-06-26T03:18:35;19.80;99.90
33741;DHT22;20065;48.380;10.892;2023-06-26T03:21:22;19.80;99.90
33741;DHT22;20065;48.380;10.892;2023-06-26T03:24:08;19.70;99.90
33741;DHT22;20065;48.380;10.892;2023-06-26T03:26:54;19.70;99.90
33741;DHT22;20065;48.380;10.892;2023-06-26T03:29:41;19.70;99.90
33741;DHT22;20065;48.380;10.892;2023-06-26T03:32:27;19.60;99.90
33741;DHT22;20065;48.380;10.892;2023-06-26T03:35:14;19.60;99.90
33741;DHT22;20065;48.380;10.892;2023-06-26T03:38:01;19.60;99.90
33741;DHT22;20065;48.380;10.892;2023-06-26T03:40:48;19.50;99.90
33741;DHT22;20065;48.380;10.892;2023-06-26T03:43:34;19.60;99.90
33741;DHT22;20065;48.380;10.892;2023-06-26T03:46:30;19.50;99.90
33741;DHT22;20065;48.380;10.892;2023-06-26T03:49:17;19.60;99.90
33741;DHT22;20065;48.380;10.892;2023-06-26T03:52:04;19.50;99.90
33741;DHT22;20065;48.380;10.892;2023-06-26T03:54:50;19.50;99.90
33741;DHT22;20065;48.380;10.892;2023-06-26T03:57:37;19.40;99.90
33741;DHT22;20065;48.380;10.892;2023-06-26T04:00:23;19.50;99.90
33741;DHT22;20065;48.380;10.892;2023-06-26T04:03:09;19.50;99.90
33741;DHT22;20065;48.380;10.892;2023-06-26T04:05:57;19.60;99.90
33741;DHT22;20065;48.380;10.892;2023-06-26T04:08:43;19.60;99.90
33741;DHT22;20065;48.380;10.892;2023-06-26T04:11:29;19.60;99.90
33741;DHT22;20065;48.380;10.892;2023-06-26T04:14:16;19.60;99.90
33741;DHT22;20065;48.380;10.892;2023-06-26T04:17:02;19.50;99.90
33741;DHT22;20065;48.380;10.892;2023-06-26T04:19:49;19.50;99.90
33741;DHT22;20065;48.380;10.892;2023-06-26T04:22:35;19.40;99.90
33741;DHT22;20065;48.380;10.892;2023-06-26T04:25:21;19.50;99.90
33741;DHT22;20065;48.380;10.892;2023-06-26T04:28:07;19.40;99.90
33741;DHT22;20065;48.380;10.892;2023-06-26T04:30:53;19.30;99.90
33741;DHT22;20065;48.380;10.892;2023-06-26T04:33:40;19.30;99.90
33741;DHT22;20065;48.380;10.892;2023-06-26T04:36:26;19.20;99.90
33741;DHT22;20065;48.380;10.892;2023-06-26T04:39:15;19.10;99.90
33741;DHT22;20065;48.380;10.892;2023-06-26T04:42:01;18.90;99.90
33741;DHT22;20065;48.380;10.892;2023-06-26T04:44:47;18.90;99.90
33741;DHT22;20065;48.380;10.892;2023-06-26T04:47:34;18.90;99.90
33741;DHT22;20065;48.380;10.892;2023-06-26T04:50:20;18.90;99.90
33741;DHT22;20065;48.380;10.892;2023-06-26T04:53:06;19.10;99.90
33741;DHT22;20065;48.380;10.892;2023-06-26T04:55:53;19.10;99.90
33741;DHT22;20065;48.380;10.892;2023-06-26T04:58:40;19.10;99.90
33741;DHT22;20065;48.380;10.892;2023-06-26T05:01:26;19.30;99.90
33741;DHT22;20065;48.380;10.892;2023-06-26T05:04:15;19.40;99.90
33741;DHT22;20065;48.380;10.892;2023-06-26T05:07:02;19.50;99.90
33741;DHT22;20065;48.380;10.892;2023-06-26T05:09:48;19.60;99.90
33741;DHT22;20065;48.380;10.892;2023-06-26T05:12:34;19.70;99.90
33741;DHT22;20065;48.380;10.892;2023-06-26T05:15:23;19.70;99.90
33741;DHT22;20065;48.380;10.892;2023-06-26T05:18:09;19.70;99.90
33741;DHT22;20065;48.380;10.892;2023-06-26T05:20:55;19.80;99.90
33741;DHT22;20065;48.380;10.892;2023-06-26T05:23:42;19.80;99.90
33741;DHT22;20065;48.380;10.892;2023-06-26T05:26:30;19.80;99.90
33741;DHT22;20065;48.380;10.892;2023-06-26T05:29:16;19.90;99.90
33741;DHT22;20065;48.380;10.892;2023-06-26T05:32:03;20.00;99.90
33741;DHT22;20065;48.380;10.892;2023-06-26T05:34:53;20.00;99.90
33741;DHT22;20065;48.380;10.892;2023-06-26T05:37:41;20.10;99.90
33741;DHT22;20065;48.380;10.892;2023-06-26T05:40:27;20.20;99.90
33741;DHT22;20065;48.380;10.892;2023-06-26T05:43:14;20.30;99.90
33741;DHT22;20065;48.380;10.892;2023-06-26T05:46:00;20.30;99.90
33741;DHT22;20065;48.380;10.892;2023-06-26T05:48:46;20.20;99.90
33741;DHT22;20065;48.380;10.892;2023-06-26T05:51:33;20.20;99.90
33741;DHT22;20065;48.380;10.892;2023-06-26T05:54:20;20.30;99.90
33741;DHT22;20065;48.380;10.892;2023-06-26T05:57:07;20.20;99.90
33741;DHT22;20065;48.380;10.892;2023-06-26T05:59:53;20.30;99.90
33741;DHT22;20065;48.380;10.892;2023-06-26T06:02:41;20.40;99.90
33741;DHT22;20065;48.380;10.892;2023-06-26T06:05:28;20.50;99.90
33741;DHT22;20065;48.380;10.892;2023-06-26T06:08:14;20.60;99.90
33741;DHT22;20065;48.380;10.892;2023-06-26T06:11:00;20.70;99.90
33741;DHT22;20065;48.380;10.892;2023-06-26T06:13:47;20.80;99.90
33741;DHT22;20065;48.380;10.892;2023-06-26T06:16:33;20.70;99.90
33741;DHT22;20065;48.380;10.892;2023-06-26T06:19:20;20.70;99.90
33741;DHT22;20065;48.380;10.892;2023-06-26T06:22:06;20.80;99.90
33741;DHT22;20065;48.380;10.892;2023-06-26T06:24:52;20.90;99.90
33741;DHT22;20065;48.380;10.892;2023-06-26T06:27:38;20.70;99.90
33741;DHT22;20065;48.380;10.892;2023-06-26T06:30:25;20.70;99.90
33741;DHT22;20065;48.380;10.892;2023-06-26T06:33:11;20.60;99.90
33741;DHT22;20065;48.380;10.892;2023-06-26T06:35:57;20.70;99.90
33741;DHT22;20065;48.380;10.892;2023-06-26T06:38:43;20.60;99.90
33741;DHT22;20065;48.380;10.892;2023-06-26T06:41:30;20.70;99.90
33741;DHT22;20065;48.380;10.892;2023-06-26T06:44:16;20.80;99.90
33741;DHT22;20065;48.380;10.892;2023-06-26T06:47:03;20.90;99.90
33741;DHT22;20065;48.380;10.892;2023-06-26T06:49:49;21.00;99.90
33741;DHT22;20065;48.380;10.892;2023-06-26T06:52:37;21.10;99.90
33741;DHT22;20065;48.380;10.892;2023-06-26T06:55:24;21.10;99.90
33741;DHT22;20065;48.380;10.892;2023-06-26T06:58:11;21.20;99.90
33741;DHT22;20065;48.380;10.892;2023-06-26T07:00:58;21.20;99.90
33741;DHT22;20065;48.380;10.892;2023-06-26T07:03:44;21.20;99.90
33741;DHT22;20065;48.380;10.892;2023-06-26T07:06:30;21.20;99.90
33741;DHT22;20065;48.380;10.892;2023-06-26T07:09:17;21.30;99.90
33741;DHT22;20065;48.380;10.892;2023-06-26T07:12:04;21.40;99.90
33741;DHT22;20065;48.380;10.892;2023-06-26T07:14:51;21.40;99.90
33741;DHT22;20065;48.380;10.892;2023-06-26T07:17:37;21.60;99.90
33741;DHT22;20065;48.380;10.892;2023-06-26T07:20:24;21.60;99.90
33741;DHT22;20065;48.380;10.892;2023-06-26T07:23:11;21.70;99.90
33741;DHT22;20065;48.380;10.892;2023-06-26T07:25:57;21.70;99.90
33741;DHT22;20065;48.380;10.892;2023-06-26T07:28:43;21.80;99.90
33741;DHT22;20065;48.380;10.892;2023-06-26T07:31:29;21.80;99.90
33741;DHT22;20065;48.380;10.892;2023-06-26T07:34:16;21.90;99.90
33741;DHT22;20065;48.380;10.892;2023-06-26T07:37:02;22.00;99.90
33741;DHT22;20065;48.380;10.892;2023-06-26T07:39:49;22.10;99.90
33741;DHT22;20065;48.380;10.892;2023-06-26T07:42:35;22.10;99.90
33741;DHT22;20065;48.380;10.892;2023-06-26T07:45:21;22.30;99.90
33741;DHT22;20065;48.380;10.892;2023-06-26T07:48:08;22.40;99.90
33741;DHT22;20065;48.380;10.892;2023-06-26T07:50:55;22.40;99.90
33741;DHT22;20065;48.380;10.892;2023-06-26T07:53:41;22.50;99.90
33741;DHT22;20065;48.380;10.892;2023-06-26T07:56:27;22.50;99.90
33741;DHT22;20065;48.380;10.892;2023-06-26T07:59:13;22.60;99.90
33741;DHT22;20065;48.380;10.892;2023-06-26T08:02:00;22.70;99.90
33741;DHT22;20065;48.380;10.892;2023-06-26T08:04:47;22.80;99.90
33741;DHT22;20065;48.380;10.892;2023-06-26T08:07:33;22.80;99.90
33741;DHT22;20065;48.380;10.892;2023-06-26T08:10:19;22.90;99.50
33741;DHT22;20065;48.380;10.892;2023-06-26T08:13:06;23.00;99.70
33741;DHT22;20065;48.380;10.892;2023-06-26T08:15:52;23.10;99.70
33741;DHT22;20065;48.380;10.892;2023-06-26T08:18:38;23.10;99.40
33741;DHT22;20065;48.380;10.892;2023-06-26T08:21:24;23.20;99.20
33741;DHT22;20065;48.380;10.892;2023-06-26T08:24:11;23.20;99.50
33741;DHT22;20065;48.380;10.892;2023-06-26T08:26:59;23.30;99.40
33741;DHT22;20065;48.380;10.892;2023-06-26T08:29:45;23.40;99.30
33741;DHT22;20065;48.380;10.892;2023-06-26T08:32:31;23.40;99.50
33741;DHT22;20065;48.380;10.892;2023-06-26T08:35:18;23.70;99.30
33741;DHT22;20065;48.380;10.892;2023-06-26T08:38:04;23.60;98.70
33741;DHT22;20065;48.380;10.892;2023-06-26T08:40:50;23.70;98.50
33741;DHT22;20065;48.380;10.892;2023-06-26T08:43:36;23.70;98.70
33741;DHT22;20065;48.380;10.892;2023-06-26T08:46:23;23.80;99.00
33741;DHT22;20065;48.380;10.892;2023-06-26T08:49:18;23.80;98.90
33741;DHT22;20065;48.380;10.892;2023-06-26T08:52:13;23.90;98.80
33741;DHT22;20065;48.380;10.892;2023-06-26T08:55:08;24.00;98.00
33741;DHT22;20065;48.380;10.892;2023-06-26T08:57:55;24.10;98.20
33741;DHT22;20065;48.380;10.892;2023-06-26T09:00:42;24.20;98.40
33741;DHT22;20065;48.380;10.892;2023-06-26T09:03:28;24.10;98.40
33741;DHT22;20065;48.380;10.892;2023-06-26T09:06:14;24.20;97.70
33741;DHT22;20065;48.380;10.892;2023-06-26T09:09:01;24.20;97.70
33741;DHT22;20065;48.380;10.892;2023-06-26T09:11:47;24.20;97.20
33741;DHT22;20065;48.380;10.892;2023-06-26T09:14:34;24.30;97.90
33741;DHT22;20065;48.380;10.892;2023-06-26T09:17:24;24.40;97.80
33741;DHT22;20065;48.380;10.892;2023-06-26T09:20:11;24.60;97.70
33741;DHT22;20065;48.380;10.892;2023-06-26T09:23:00;24.60;97.70
33741;DHT22;20065;48.380;10.892;2023-06-26T09:25:47;24.80;97.80
33741;DHT22;20065;48.380;10.892;2023-06-26T09:28:34;24.80;97.70
33741;DHT22;20065;48.380;10.892;2023-06-26T09:31:21;24.90;97.80
33741;DHT22;20065;48.380;10.892;2023-06-26T09:34:09;24.90;97.40
33741;DHT22;20065;48.380;10.892;2023-06-26T09:36:56;24.90;97.00
33741;DHT22;20065;48.380;10.892;2023-06-26T09:39:44;24.90;97.30
33741;DHT22;20065;48.380;10.892;2023-06-26T09:42:30;25.00;96.70
33741;DHT22;20065;48.380;10.892;2023-06-26T09:45:20;25.10;96.60
33741;DHT22;20065;48.380;10.892;2023-06-26T09:48:06;25.20;96.40
33741;DHT22;20065;48.380;10.892;2023-06-26T09:51:00;25.30;95.90
33741;DHT22;20065;48.380;10.892;2023-06-26T09:53:48;25.50;96.40
33741;DHT22;20065;48.380;10.892;2023-06-26T09:56:34;25.60;95.40
33741;DHT22;20065;48.380;10.892;2023-06-26T09:59:21;26.00;94.70
33741;DHT22;20065;48.380;10.892;2023-06-26T10:02:08;26.00;94.70
33741;DHT22;20065;48.380;10.892;2023-06-26T10:04:55;26.00;94.90
33741;DHT22;20065;48.380;10.892;2023-06-26T10:07:41;26.00;95.20
33741;DHT22;20065;48.380;10.892;2023-06-26T10:10:36;26.00;94.70
33741;DHT22;20065;48.380;10.892;2023-06-26T10:13:29;26.20;94.00
33741;DHT22;20065;48.380;10.892;2023-06-26T10:16:26;26.30;93.70
33741;DHT22;20065;48.380;10.892;2023-06-26T10:19:21;26.20;93.70
33741;DHT22;20065;48.380;10.892;2023-06-26T10:22:14;26.20;93.90
33741;DHT22;20065;48.380;10.892;2023-06-26T10:25:03;26.20;94.10
33741;DHT22;20065;48.380;10.892;2023-06-26T10:27:58;26.10;94.40
33741;DHT22;20065;48.380;10.892;2023-06-26T10:30:46;26.20;93.20
33741;DHT22;20065;48.380;10.892;2023-06-26T10:33:34;26.30;93.40
33741;DHT22;20065;48.380;10.892;2023-06-26T10:36:30;26.40;93.70
33741;DHT22;20065;48.380;10.892;2023-06-26T10:39:17;26.40;94.00
33741;DHT22;20065;48.380;10.892;2023-06-26T10:42:09;26.30;93.80
33741;DHT22;20065;48.380;10.892;2023-06-26T10:45:11;26.40;94.00
33741;DHT22;20065;48.380;10.892;2023-06-26T10:47:59;26.40;94.60
33741;DHT22;20065;48.380;10.892;2023-06-26T10:50:49;26.40;94.60
33741;DHT22;20065;48.380;10.892;2023-06-26T10:53:35;26.40;94.10
33741;DHT22;20065;48.380;10.892;2023-06-26T10:56:43;26.40;94.40
33741;DHT22;20065;48.380;10.892;2023-06-26T10:59:32;26.50;94.10
33741;DHT22;20065;48.380;10.892;2023-06-26T11:02:18;26.60;94.20
33741;DHT22;20065;48.380;10.892;2023-06-26T11:05:08;26.40;93.90
33741;DHT22;20065;48.380;10.892;2023-06-26T11:10:54;26.60;93.90
33741;DHT22;20065;48.380;10.892;2023-06-26T11:13:46;26.60;94.50
33741;DHT22;20065;48.380;10.892;2023-06-26T11:16:34;26.70;94.40
33741;DHT22;20065;48.380;10.892;2023-06-26T11:19:22;26.70;94.20
33741;DHT22;20065;48.380;10.892;2023-06-26T11:22:09;26.60;94.20
33741;DHT22;20065;48.380;10.892;2023-06-26T11:24:59;26.50;94.70
33741;DHT22;20065;48.380;10.892;2023-06-26T11:27:45;26.60;94.40
33741;DHT22;20065;48.380;10.892;2023-06-26T11:30:35;26.70;93.80
33741;DHT22;20065;48.380;10.892;2023-06-26T11:33:26;26.70;94.30
33741;DHT22;20065;48.380;10.892;2023-06-26T11:36:13;26.70;94.30
33741;DHT22;20065;48.380;10.892;2023-06-26T11:39:01;26.70;94.20
33741;DHT22;20065;48.380;10.892;2023-06-26T11:41:49;26.60;94.50
33741;DHT22;20065;48.380;10.892;2023-06-26T11:44:40;26.70;94.80
33741;DHT22;20065;48.380;10.892;2023-06-26T11:47:28;26.80;94.40
33741;DHT22;20065;48.380;10.892;2023-06-26T11:50:17;26.90;93.90
33741;DHT22;20065;48.380;10.892;2023-06-26T11:53:03;27.00;93.30
33741;DHT22;20065;48.380;10.892;2023-06-26T11:55:51;27.10;93.50
33741;DHT22;20065;48.380;10.892;2023-06-26T11:59:00;27.10;93.20
33741;DHT22;20065;48.380;10.892;2023-06-26T12:01:47;27.10;92.60
33741;DHT22;20065;48.380;10.892;2023-06-26T12:04:34;27.10;92.60
33741;DHT22;20065;48.380;10.892;2023-06-26T12:07:25;27.10;92.70
33741;DHT22;20065;48.380;10.892;2023-06-26T12:10:12;27.20;93.20
33741;DHT22;20065;48.380;10.892;2023-06-26T12:12:59;27.20;93.00
33741;DHT22;20065;48.380;10.892;2023-06-26T12:15:47;27.30;92.90
33741;DHT22;20065;48.380;10.892;2023-06-26T12:18:34;27.40;94.10
33741;DHT22;20065;48.380;10.892;2023-06-26T12:21:46;27.50;91.60
33741;DHT22;20065;48.380;10.892;2023-06-26T12:24:43;27.60;91.90
33741;DHT22;20065;48.380;10.892;2023-06-26T12:27:29;27.70;92.40
33741;DHT22;20065;48.380;10.892;2023-06-26T12:30:16;27.60;92.70
33741;DHT22;20065;48.380;10.892;2023-06-26T12:33:02;27.70;91.90
33741;DHT22;20065;48.380;10.892;2023-06-26T12:35:48;27.70;91.60
33741;DHT22;20065;48.380;10.892;2023-06-26T12:38:36;27.60;91.90
33741;DHT22;20065;48.380;10.892;2023-06-26T12:41:25;27.70;92.50
33741;DHT22;20065;48.380;10.892;2023-06-26T12:44:22;27.70;91.00
33741;DHT22;20065;48.380;10.892;2023-06-26T12:47:16;27.70;92.10
33741;DHT22;20065;48.380;10.892;2023-06-26T12:50:05;27.70;92.90
33741;DHT22;20065;48.380;10.892;2023-06-26T12:52:52;27.80;93.70
33741;DHT22;20065;48.380;10.892;2023-06-26T12:55:38;27.80;92.60
33741;DHT22;20065;48.380;10.892;2023-06-26T12:58:24;27.90;91.40
33741;DHT22;20065;48.380;10.892;2023-06-26T13:01:48;27.90;90.90
33741;DHT22;20065;48.380;10.892;2023-06-26T13:08:12;28.00;90.80
33741;DHT22;20065;48.380;10.892;2023-06-26T13:11:07;28.00;91.90
33741;DHT22;20065;48.380;10.892;2023-06-26T13:13:53;28.00;92.50
33741;DHT22;20065;48.380;10.892;2023-06-26T13:16:40;28.10;92.90
33741;DHT22;20065;48.380;10.892;2023-06-26T13:19:26;27.90;91.40
33741;DHT22;20065;48.380;10.892;2023-06-26T13:22:12;27.90;91.90
33741;DHT22;20065;48.380;10.892;2023-06-26T13:25:00;27.80;92.10
33741;DHT22;20065;48.380;10.892;2023-06-26T13:27:46;27.80;92.00
33741;DHT22;20065;48.380;10.892;2023-06-26T13:30:32;27.70;91.90
33741;DHT22;20065;48.380;10.892;2023-06-26T13:33:19;27.70;92.30
33741;DHT22;20065;48.380;10.892;2023-06-26T13:36:06;27.70;92.20
33741;DHT22;20065;48.380;10.892;2023-06-26T13:39:05;27.70;92.90
33741;DHT22;20065;48.380;10.892;2023-06-26T13:41:51;27.90;93.20
33741;DHT22;20065;48.380;10.892;2023-06-26T13:44:40;27.90;92.50
33741;DHT22;20065;48.380;10.892;2023-06-26T13:47:27;28.00;92.90
33741;DHT22;20065;48.380;10.892;2023-06-26T13:50:13;27.90;92.10
33741;DHT22;20065;48.380;10.892;2023-06-26T13:52:59;27.90;92.50
33741;DHT22;20065;48.380;10.892;2023-06-26T13:55:46;28.00;93.10
33741;DHT22;20065;48.380;10.892;2023-06-26T13:58:34;28.00;93.50
33741;DHT22;20065;48.380;10.892;2023-06-26T14:01:20;28.00;93.60
33741;DHT22;20065;48.380;10.892;2023-06-26T14:04:09;28.00;91.40
33741;DHT22;20065;48.380;10.892;2023-06-26T14:06:56;28.10;91.10
33741;DHT22;20065;48.380;10.892;2023-06-26T14:09:42;28.00;91.40
33741;DHT22;20065;48.380;10.892;2023-06-26T14:12:28;28.40;92.60
33741;DHT22;20065;48.380;10.892;2023-06-26T14:15:15;28.00;92.70
33741;DHT22;20065;48.380;10.892;2023-06-26T14:18:01;27.80;93.30
33741;DHT22;20065;48.380;10.892;2023-06-26T14:20:48;28.00;93.50
33741;DHT22;20065;48.380;10.892;2023-06-26T14:23:35;27.90;92.80
33741;DHT22;20065;48.380;10.892;2023-06-26T14:26:24;27.90;93.50
33741;DHT22;20065;48.380;10.892;2023-06-26T14:29:10;27.90;94.30
33741;DHT22;20065;48.380;10.892;2023-06-26T14:31:57;27.80;93.70
33741;DHT22;20065;48.380;10.892;2023-06-26T14:34:49;27.80;95.10
33741;DHT22;20065;48.380;10.892;2023-06-26T14:37:36;27.80;94.30
33741;DHT22;20065;48.380;10.892;2023-06-26T14:40:25;27.90;94.20
33741;DHT22;20065;48.380;10.892;2023-06-26T14:43:11;27.90;94.90
33741;DHT22;20065;48.380;10.892;2023-06-26T14:45:58;27.90;95.80
33741;DHT22;20065;48.380;10.892;2023-06-26T14:48:45;27.90;93.10
33741;DHT22;20065;48.380;10.892;2023-06-26T14:51:32;27.90;93.70
33741;DHT22;20065;48.380;10.892;2023-06-26T14:54:18;28.00;95.20
33741;DHT22;20065;48.380;10.892;2023-06-26T14:57:05;28.00;96.20
33741;DHT22;20065;48.380;10.892;2023-06-26T14:59:51;27.90;95.00
33741;DHT22;20065;48.380;10.892;2023-06-26T15:02:38;28.00;94.90
33741;DHT22;20065;48.380;10.892;2023-06-26T15:05:24;27.90;94.60
33741;DHT22;20065;48.380;10.892;2023-06-26T15:08:10;27.80;95.60
33741;DHT22;20065;48.380;10.892;2023-06-26T15:10:57;27.80;97.10
33741;DHT22;20065;48.380;10.892;2023-06-26T15:13:43;27.80;95.10
33741;DHT22;20065;48.380;10.892;2023-06-26T15:16:29;27.70;95.10
33741;DHT22;20065;48.380;10.892;2023-06-26T15:19:15;27.80;95.70
33741;DHT22;20065;48.380;10.892;2023-06-26T15:22:02;27.70;95.70
33741;DHT22;20065;48.380;10.892;2023-06-26T15:24:48;27.60;95.40
33741;DHT22;20065;48.380;10.892;2023-06-26T15:27:35;27.60;95.50
33741;DHT22;20065;48.380;10.892;2023-06-26T15:30:21;27.60;95.40
33741;DHT22;20065;48.380;10.892;2023-06-26T15:33:15;27.50;95.10
33741;DHT22;20065;48.380;10.892;2023-06-26T15:36:01;27.40;95.40
33741;DHT22;20065;48.380;10.892;2023-06-26T15:38:49;27.30;95.40
33741;DHT22;20065;48.380;10.892;2023-06-26T15:41:36;27.20;94.80
33741;DHT22;20065;48.380;10.892;2023-06-26T15:44:23;27.10;95.00
33741;DHT22;20065;48.380;10.892;2023-06-26T15:47:09;27.20;95.00
33741;DHT22;20065;48.380;10.892;2023-06-26T15:49:55;27.20;95.00
33741;DHT22;20065;48.380;10.892;2023-06-26T15:52:42;27.00;95.30
33741;DHT22;20065;48.380;10.892;2023-06-26T15:55:28;26.90;96.30
33741;DHT22;20065;48.380;10.892;2023-06-26T15:58:14;26.80;97.10
33741;DHT22;20065;48.380;10.892;2023-06-26T16:01:01;26.30;99.60
33741;DHT22;20065;48.380;10.892;2023-06-26T16:03:47;25.80;99.90
33741;DHT22;20065;48.380;10.892;2023-06-26T16:06:33;25.40;99.90
33741;DHT22;20065;48.380;10.892;2023-06-26T16:09:19;24.70;99.90
33741;DHT22;20065;48.380;10.892;2023-06-26T16:12:07;24.20;99.90
33741;DHT22;20065;48.380;10.892;2023-06-26T16:14:53;23.50;99.90
33741;DHT22;20065;48.380;10.892;2023-06-26T16:17:40;23.40;99.90
33741;DHT22;20065;48.380;10.892;2023-06-26T16:20:26;23.60;99.90
33741;DHT22;20065;48.380;10.892;2023-06-26T16:23:12;23.60;99.90
33741;DHT22;20065;48.380;10.892;2023-06-26T16:25:58;23.50;99.90
33741;DHT22;20065;48.380;10.892;2023-06-26T16:28:44;23.60;99.90
33741;DHT22;20065;48.380;10.892;2023-06-26T16:31:34;23.50;99.90
33741;DHT22;20065;48.380;10.892;2023-06-26T16:34:21;23.30;99.90
33741;DHT22;20065;48.380;10.892;2023-06-26T16:37:07;23.30;99.90
33741;DHT22;20065;48.380;10.892;2023-06-26T16:39:54;23.10;99.90
33741;DHT22;20065;48.380;10.892;2023-06-26T16:42:40;23.10;99.90
33741;DHT22;20065;48.380;10.892;2023-06-26T16:45:26;23.00;99.90
33741;DHT22;20065;48.380;10.892;2023-06-26T16:48:13;23.00;99.90
33741;DHT22;20065;48.380;10.892;2023-06-26T16:51:05;23.00;99.90
33741;DHT22;20065;48.380;10.892;2023-06-26T16:53:52;23.00;99.90
33741;DHT22;20065;48.380;10.892;2023-06-26T16:56:38;22.90;99.90
33741;DHT22;20065;48.380;10.892;2023-06-26T16:59:24;22.40;99.90
33741;DHT22;20065;48.380;10.892;2023-06-26T17:02:11;22.10;99.90
33741;DHT22;20065;48.380;10.892;2023-06-26T17:04:58;22.20;99.90
33741;DHT22;20065;48.380;10.892;2023-06-26T17:07:44;22.00;99.90
33741;DHT22;20065;48.380;10.892;2023-06-26T17:10:31;22.10;99.90
33741;DHT22;20065;48.380;10.892;2023-06-26T17:13:17;22.20;99.90
33741;DHT22;20065;48.380;10.892;2023-06-26T17:16:03;22.10;99.90
33741;DHT22;20065;48.380;10.892;2023-06-26T17:18:52;22.10;99.90
33741;DHT22;20065;48.380;10.892;2023-06-26T17:21:39;21.80;99.90
33741;DHT22;20065;48.380;10.892;2023-06-26T17:24:25;21.70;99.90
33741;DHT22;20065;48.380;10.892;2023-06-26T17:27:14;21.50;99.90
33741;DHT22;20065;48.380;10.892;2023-06-26T17:30:03;21.50;99.90
33741;DHT22;20065;48.380;10.892;2023-06-26T17:32:49;21.80;99.90
33741;DHT22;20065;48.380;10.892;2023-06-26T17:35:35;22.00;99.90